sensor_id;sensor_type;location;lat;lon;timestamp;temperature;humidity
27306;DHT22;14792;50.886;6.468;2023-08-21T00:00:35;19.30;99.90
27306;DHT22;14792;50.886;6.468;2023-08-21T00:03:37;19.20;99.90
27306;DHT22;14792;50.886;6.468;2023-08-21T00:06:38;19.10;99.90
27306;DHT22;14792;50.886;6.468;2023-08-21T00:09:40;19.20;99.90
27306;DHT22;14792;50.886;6.468;2023-08-21T00:12:42;19.20;99.90
27306;DHT22;14792;50.886;6.468;2023-08-21T00:15:43;19.30;99.90
27306;DHT22;14792;50.886;6.468;2023-08-21T00:18:45;19.30;99.90
27306;DHT22;14792;50.886;6.468;2023-08-21T00:21:47;19.30;99.90
27306;DHT22;14792;50.886;6.468;2023-08-21T00:24:48;19.30;99.90
27306;DHT22;14792;50.886;6.468;2023-08-21T00:27:50;19.10;99.90
27306;DHT22;14792;50.886;6.468;2023-08-21T00:30:59;19.00;99.90
27306;DHT22;14792;50.886;6.468;2023-08-21T00:33:53;19.00;99.90
27306;DHT22;14792;50.886;6.468;2023-08-21T00:36:55;19.00;99.90
27306;DHT22;14792;50.886;6.468;2023-08-21T00:39:56;19.00;99.90
27306;DHT22;14792;50.886;6.468;2023-08-21T00:42:58;19.00;99.90
27306;DHT22;14792;50.886;6.468;2023-08-21T00:46:00;19.00;99.90
27306;DHT22;14792;50.886;6.468;2023-08-21T00:49:01;18.90;99.90
27306;DHT22;14792;50.886;6.468;2023-08-21T00:52:03;19.00;99.90
27306;DHT22;14792;50.886;6.468;2023-08-21T00:55:04;19.00;99.90
27306;DHT22;14792;50.886;6.468;2023-08-21T00:58:06;19.00;99.90
27306;DHT22;14792;50.886;6.468;2023-08-21T01:01:29;19.00;99.90
27306;DHT22;14792;50.886;6.468;2023-08-21T01:04:30;19.10;99.90
27306;DHT22;14792;50.886;6.468;2023-08-21T01:07:32;19.10;99.90
27306;DHT22;14792;50.886;6.468;2023-08-21T01:10:39;19.00;99.90
27306;DHT22;14792;50.886;6.468;2023-08-21T01:13:55;18.90;99.90
27306;DHT22;14792;50.886;6.468;2023-08-21T01:16:59;18.80;99.90
27306;DHT22;14792;50.886;6.468;2023-08-21T01:19:56;18.70;99.90
27306;DHT22;14792;50.886;6.468;2023-08-21T01:23:02;18.70;99.90
27306;DHT22;14792;50.886;6.468;2023-08-21T01:25:59;18.60;99.90
27306;DHT22;14792;50.886;6.468;2023-08-21T01:29:00;18.70;99.90
27306;DHT22;14792;50.886;6.468;2023-08-21T01:32:14;18.70;99.90
27306;DHT22;14792;50.886;6.468;2023-08-21T01:35:13;18.70;99.90
27306;DHT22;14792;50.886;6.468;2023-08-21T01:38:15;18.60;99.90
27306;DHT22;14792;50.886;6.468;2023-08-21T01:41:16;18.60;99.90
27306;DHT22;14792;50.886;6.468;2023-08-21T01:44:18;18.60;99.90
27306;DHT22;14792;50.886;6.468;2023-08-21T01:47:20;18.50;99.90
27306;DHT22;14792;50.886;6.468;2023-08-21T01:50:21;18.60;99.90
27306;DHT22;14792;50.886;6.468;2023-08-21T01:53:23;18.50;99.90
27306;DHT22;14792;50.886;6.468;2023-08-21T01:56:24;18.50;99.90
27306;DHT22;14792;50.886;6.468;2023-08-21T01:59:26;18.60;99.90
27306;DHT22;14792;50.886;6.468;2023-08-21T02:02:28;18.60;99.90
27306;DHT22;14792;50.886;6.468;2023-08-21T02:05:29;18.60;99.90
27306;DHT22;14792;50.886;6.468;2023-08-21T02:08:31;18.60;99.90
27306;DHT22;14792;50.886;6.468;2023-08-21T02:11:32;18.70;99.90
27306;DHT22;14792;50.886;6.468;2023-08-21T02:14:34;18.60;99.90
27306;DHT22;14792;50.886;6.468;2023-08-21T02:17:36;18.60;99.90
27306;DHT22;14792;50.886;6.468;2023-08-21T02:20:37;18.60;99.90
27306;DHT22;14792;50.886;6.468;2023-08-21T02:23:39;18.60;99.90
27306;DHT22;14792;50.886;6.468;2023-08-21T02:26:40;18.50;99.90
27306;DHT22;14792;50.886;6.468;2023-08-21T02:29:42;18.50;99.90
27306;DHT22;14792;50.886;6.468;2023-08-21T02:32:44;18.50;99.90
27306;DHT22;14792;50.886;6.468;2023-08-21T02:35:46;18.50;99.90
27306;DHT22;14792;50.886;6.468;2023-08-21T02:38:49;18.50;99.90
27306;DHT22;14792;50.886;6.468;2023-08-21T02:41:49;18.40;99.90
27306;DHT22;14792;50.886;6.468;2023-08-21T02:44:51;18.40;99.90
27306;DHT22;14792;50.886;6.468;2023-08-21T02:47:52;18.30;99.90
27306;DHT22;14792;50.886;6.468;2023-08-21T02:50:54;18.30;99.90
27306;DHT22;14792;50.886;6.468;2023-08-21T02:53:55;18.40;99.90
27306;DHT22;14792;50.886;6.468;2023-08-21T02:56:57;18.30;99.90
27306;DHT22;14792;50.886;6.468;2023-08-21T02:59:59;18.30;99.90
27306;DHT22;14792;50.886;6.468;2023-08-21T03:03:00;18.40;99.90
27306;DHT22;14792;50.886;6.468;2023-08-21T03:06:02;18.40;99.90
27306;DHT22;14792;50.886;6.468;2023-08-21T03:09:03;18.50;99.90
27306;DHT22;14792;50.886;6.468;2023-08-21T03:12:05;18.50;99.90
27306;DHT22;14792;50.886;6.468;2023-08-21T03:15:07;18.50;99.90
27306;DHT22;14792;50.886;6.468;2023-08-21T03:18:08;18.60;99.90
27306;DHT22;14792;50.886;6.468;2023-08-21T03:21:10;18.50;99.90
27306;DHT22;14792;50.886;6.468;2023-08-21T03:24:11;18.50;99.90
27306;DHT22;14792;50.886;6.468;2023-08-21T03:27:16;18.40;99.90
27306;DHT22;14792;50.886;6.468;2023-08-21T03:30:15;18.40;99.90
27306;DHT22;14792;50.886;6.468;2023-08-21T03:33:16;18.30;99.90
27306;DHT22;14792;50.886;6.468;2023-08-21T03:36:18;18.20;99.90
27306;DHT22;14792;50.886;6.468;2023-08-21T03:39:19;18.10;99.90
27306;DHT22;14792;50.886;6.468;2023-08-21T03:42:21;18.10;99.90
27306;DHT22;14792;50.886;6.468;2023-08-21T03:45:23;18.00;99.90
27306;DHT22;14792;50.886;6.468;2023-08-21T03:48:24;18.00;99.90
27306;DHT22;14792;50.886;6.468;2023-08-21T03:51:26;18.00;99.90
27306;DHT22;14792;50.886;6.468;2023-08-21T03:54:27;17.90;99.90
27306;DHT22;14792;50.886;6.468;2023-08-21T03:57:29;18.00;99.90
27306;DHT22;14792;50.886;6.468;2023-08-21T04:00:31;18.00;99.90
27306;DHT22;14792;50.886;6.468;2023-08-21T04:03:32;18.00;99.90
27306;DHT22;14792;50.886;6.468;2023-08-21T04:06:34;17.90;99.90
27306;DHT22;14792;50.886;6.468;2023-08-21T04:09:35;18.00;99.90
27306;DHT22;14792;50.886;6.468;2023-08-21T04:12:37;18.00;99.90
27306;DHT22;14792;50.886;6.468;2023-08-21T04:15:38;17.90;99.90
27306;DHT22;14792;50.886;6.468;2023-08-21T04:18:40;18.00;99.90
27306;DHT22;14792;50.886;6.468;2023-08-21T04:21:42;17.90;99.90
27306;DHT22;14792;50.886;6.468;2023-08-21T04:24:43;17.80;99.90
27306;DHT22;14792;50.886;6.468;2023-08-21T04:27:45;17.70;99.90
27306;DHT22;14792;50.886;6.468;2023-08-21T04:30:47;17.70;99.90
27306;DHT22;14792;50.886;6.468;2023-08-21T04:33:48;17.60;99.90
27306;DHT22;14792;50.886;6.468;2023-08-21T04:36:50;17.50;99.90
27306;DHT22;14792;50.886;6.468;2023-08-21T04:39:52;17.50;99.90
27306;DHT22;14792;50.886;6.468;2023-08-21T04:42:53;17.50;99.90
27306;DHT22;14792;50.886;6.468;2023-08-21T04:45:55;17.60;99.90
27306;DHT22;14792;50.886;6.468;2023-08-21T04:48:56;17.50;99.90
27306;DHT22;14792;50.886;6.468;2023-08-21T04:51:58;17.60;99.90
27306;DHT22;14792;50.886;6.468;2023-08-21T04:55:00;17.50;99.90
27306;DHT22;14792;50.886;6.468;2023-08-21T04:58:01;17.50;99.90
27306;DHT22;14792;50.886;6.468;2023-08-21T05:01:04;17.50;99.90
27306;DHT22;14792;50.886;6.468;2023-08-21T05:04:04;17.60;99.90
27306;DHT22;14792;50.886;6.468;2023-08-21T05:07:06;17.60;99.90
27306;DHT22;14792;50.886;6.468;2023-08-21T05:10:08;17.70;99.90
27306;DHT22;14792;50.886;6.468;2023-08-21T05:13:09;17.70;99.90
27306;DHT22;14792;50.886;6.468;2023-08-21T05:16:11;17.70;99.90
27306;DHT22;14792;50.886;6.468;2023-08-21T05:19:12;17.70;99.90
27306;DHT22;14792;50.886;6.468;2023-08-21T05:22:14;17.80;99.90
27306;DHT22;14792;50.886;6.468;2023-08-21T05:25:15;17.90;99.90
27306;DHT22;14792;50.886;6.468;2023-08-21T05:28:17;17.90;99.90
27306;DHT22;14792;50.886;6.468;2023-08-21T05:31:19;18.00;99.90
27306;DHT22;14792;50.886;6.468;2023-08-21T05:34:20;18.10;99.90
27306;DHT22;14792;50.886;6.468;2023-08-21T05:37:22;18.10;99.90
27306;DHT22;14792;50.886;6.468;2023-08-21T05:40:24;18.20;99.90
27306;DHT22;14792;50.886;6.468;2023-08-21T05:43:25;18.10;99.90
27306;DHT22;14792;50.886;6.468;2023-08-21T05:46:27;18.20;99.90
27306;DHT22;14792;50.886;6.468;2023-08-21T05:49:28;18.20;99.90
27306;DHT22;14792;50.886;6.468;2023-08-21T05:52:30;18.30;99.90
27306;DHT22;14792;50.886;6.468;2023-08-21T05:55:32;18.30;99.90
27306;DHT22;14792;50.886;6.468;2023-08-21T05:58:33;18.30;99.90
27306;DHT22;14792;50.886;6.468;2023-08-21T06:01:35;18.40;99.90
27306;DHT22;14792;50.886;6.468;2023-08-21T06:04:37;18.50;99.90
27306;DHT22;14792;50.886;6.468;2023-08-21T06:07:38;18.60;99.90
27306;DHT22;14792;50.886;6.468;2023-08-21T06:10:39;18.60;99.90
27306;DHT22;14792;50.886;6.468;2023-08-21T06:13:41;18.70;99.90
27306;DHT22;14792;50.886;6.468;2023-08-21T06:16:43;18.80;99.90
27306;DHT22;14792;50.886;6.468;2023-08-21T06:19:44;18.90;99.90
27306;DHT22;14792;50.886;6.468;2023-08-21T06:22:46;18.90;99.90
27306;DHT22;14792;50.886;6.468;2023-08-21T06:25:50;19.00;99.90
27306;DHT22;14792;50.886;6.468;2023-08-21T06:28:52;19.10;99.90
27306;DHT22;14792;50.886;6.468;2023-08-21T06:31:53;19.20;99.90
27306;DHT22;14792;50.886;6.468;2023-08-21T06:34:55;19.30;99.90
27306;DHT22;14792;50.886;6.468;2023-08-21T06:37:56;19.50;99.90
27306;DHT22;14792;50.886;6.468;2023-08-21T06:40:58;19.60;99.90
27306;DHT22;14792;50.886;6.468;2023-08-21T06:44:00;19.70;99.90
27306;DHT22;14792;50.886;6.468;2023-08-21T06:47:01;19.90;99.90
27306;DHT22;14792;50.886;6.468;2023-08-21T06:50:03;20.00;99.90
27306;DHT22;14792;50.886;6.468;2023-08-21T06:53:04;20.10;99.90
27306;DHT22;14792;50.886;6.468;2023-08-21T06:56:06;20.20;99.90
27306;DHT22;14792;50.886;6.468;2023-08-21T06:59:07;20.30;99.90
27306;DHT22;14792;50.886;6.468;2023-08-21T07:02:09;20.50;99.90
27306;DHT22;14792;50.886;6.468;2023-08-21T07:05:11;20.70;99.90
27306;DHT22;14792;50.886;6.468;2023-08-21T07:08:12;20.80;99.90
27306;DHT22;14792;50.886;6.468;2023-08-21T07:11:14;21.00;99.90
27306;DHT22;14792;50.886;6.468;2023-08-21T07:14:15;21.20;99.90
27306;DHT22;14792;50.886;6.468;2023-08-21T07:17:17;21.30;99.90
27306;DHT22;14792;50.886;6.468;2023-08-21T07:20:19;21.50;99.90
27306;DHT22;14792;50.886;6.468;2023-08-21T07:23:20;21.80;99.90
27306;DHT22;14792;50.886;6.468;2023-08-21T07:26:22;21.90;99.90
27306;DHT22;14792;50.886;6.468;2023-08-21T07:29:23;21.90;99.90
27306;DHT22;14792;50.886;6.468;2023-08-21T07:32:25;22.10;99.90
27306;DHT22;14792;50.886;6.468;2023-08-21T07:35:27;22.30;99.90
27306;DHT22;14792;50.886;6.468;2023-08-21T07:38:28;22.30;99.90
27306;DHT22;14792;50.886;6.468;2023-08-21T07:41:30;22.40;99.90
27306;DHT22;14792;50.886;6.468;2023-08-21T07:44:31;22.60;99.90
27306;DHT22;14792;50.886;6.468;2023-08-21T07:47:33;22.70;99.90
27306;DHT22;14792;50.886;6.468;2023-08-21T07:50:34;23.00;99.90
27306;DHT22;14792;50.886;6.468;2023-08-21T07:53:36;23.20;99.90
27306;DHT22;14792;50.886;6.468;2023-08-21T07:56:38;23.30;99.90
27306;DHT22;14792;50.886;6.468;2023-08-21T07:59:39;23.30;99.90
27306;DHT22;14792;50.886;6.468;2023-08-21T08:02:41;23.50;99.90
27306;DHT22;14792;50.886;6.468;2023-08-21T08:05:42;23.50;99.90
27306;DHT22;14792;50.886;6.468;2023-08-21T08:08:44;23.60;99.90
27306;DHT22;14792;50.886;6.468;2023-08-21T08:11:46;23.80;99.90
27306;DHT22;14792;50.886;6.468;2023-08-21T08:14:47;23.90;99.90
27306;DHT22;14792;50.886;6.468;2023-08-21T08:17:49;24.10;99.90
27306;DHT22;14792;50.886;6.468;2023-08-21T08:20:53;24.00;99.90
27306;DHT22;14792;50.886;6.468;2023-08-21T08:23:55;23.90;99.90
27306;DHT22;14792;50.886;6.468;2023-08-21T08:26:56;24.00;99.90
27306;DHT22;14792;50.886;6.468;2023-08-21T08:29:58;24.30;99.90
27306;DHT22;14792;50.886;6.468;2023-08-21T08:32:59;24.50;99.90
27306;DHT22;14792;50.886;6.468;2023-08-21T08:36:01;24.60;99.90
27306;DHT22;14792;50.886;6.468;2023-08-21T08:39:02;24.40;99.90
27306;DHT22;14792;50.886;6.468;2023-08-21T08:42:05;24.50;99.90
27306;DHT22;14792;50.886;6.468;2023-08-21T08:45:06;24.50;99.90
27306;DHT22;14792;50.886;6.468;2023-08-21T08:48:07;24.80;99.90
27306;DHT22;14792;50.886;6.468;2023-08-21T08:51:09;24.70;99.90
27306;DHT22;14792;50.886;6.468;2023-08-21T08:54:10;24.50;99.90
27306;DHT22;14792;50.886;6.468;2023-08-21T08:57:12;24.70;99.90
27306;DHT22;14792;50.886;6.468;2023-08-21T09:00:14;24.80;99.90
27306;DHT22;14792;50.886;6.468;2023-08-21T09:03:16;24.80;99.90
27306;DHT22;14792;50.886;6.468;2023-08-21T09:06:18;24.90;99.90
27306;DHT22;14792;50.886;6.468;2023-08-21T09:09:19;25.00;99.90
27306;DHT22;14792;50.886;6.468;2023-08-21T09:12:21;25.40;99.90
27306;DHT22;14792;50.886;6.468;2023-08-21T09:15:27;25.40;99.90
27306;DHT22;14792;50.886;6.468;2023-08-21T09:18:24;25.40;99.90
27306;DHT22;14792;50.886;6.468;2023-08-21T09:21:26;25.60;99.90
27306;DHT22;14792;50.886;6.468;2023-08-21T09:24:27;25.80;99.90
27306;DHT22;14792;50.886;6.468;2023-08-21T09:27:29;26.00;99.90
27306;DHT22;14792;50.886;6.468;2023-08-21T09:30:30;25.90;99.90
27306;DHT22;14792;50.886;6.468;2023-08-21T09:33:32;25.80;99.90
27306;DHT22;14792;50.886;6.468;2023-08-21T09:36:33;25.50;99.90
27306;DHT22;14792;50.886;6.468;2023-08-21T09:39:36;25.70;99.90
27306;DHT22;14792;50.886;6.468;2023-08-21T09:42:38;25.70;99.90
27306;DHT22;14792;50.886;6.468;2023-08-21T09:45:38;25.70;99.90
27306;DHT22;14792;50.886;6.468;2023-08-21T09:48:40;25.80;99.90
27306;DHT22;14792;50.886;6.468;2023-08-21T09:51:41;25.80;99.90
27306;DHT22;14792;50.886;6.468;2023-08-21T09:54:43;26.00;99.90
27306;DHT22;14792;50.886;6.468;2023-08-21T09:57:45;26.20;99.90
27306;DHT22;14792;50.886;6.468;2023-08-21T10:00:48;26.30;99.90
27306;DHT22;14792;50.886;6.468;2023-08-21T10:03:48;26.30;99.90
27306;DHT22;14792;50.886;6.468;2023-08-21T10:06:51;26.40;99.90
27306;DHT22;14792;50.886;6.468;2023-08-21T10:09:52;26.20;99.90
27306;DHT22;14792;50.886;6.468;2023-08-21T10:12:53;26.10;99.90
27306;DHT22;14792;50.886;6.468;2023-08-21T10:15:55;25.90;99.90
27306;DHT22;14792;50.886;6.468;2023-08-21T10:19:00;26.30;99.90
27306;DHT22;14792;50.886;6.468;2023-08-21T10:21:58;26.20;99.90
27306;DHT22;14792;50.886;6.468;2023-08-21T10:24:59;26.00;99.90
27306;DHT22;14792;50.886;6.468;2023-08-21T10:28:01;26.20;99.90
27306;DHT22;14792;50.886;6.468;2023-08-21T10:31:28;25.80;99.90
27306;DHT22;14792;50.886;6.468;2023-08-21T10:34:32;25.70;99.90
27306;DHT22;14792;50.886;6.468;2023-08-21T10:37:33;26.00;99.90
27306;DHT22;14792;50.886;6.468;2023-08-21T10:40:35;26.20;99.90
27306;DHT22;14792;50.886;6.468;2023-08-21T10:43:45;26.60;99.90
27306;DHT22;14792;50.886;6.468;2023-08-21T10:46:52;26.60;99.90
27306;DHT22;14792;50.886;6.468;2023-08-21T10:49:54;26.60;99.90
27306;DHT22;14792;50.886;6.468;2023-08-21T10:52:55;26.70;99.90
27306;DHT22;14792;50.886;6.468;2023-08-21T10:55:57;26.20;99.90
27306;DHT22;14792;50.886;6.468;2023-08-21T10:58:58;26.30;99.90
27306;DHT22;14792;50.886;6.468;2023-08-21T11:02:00;26.90;99.90
27306;DHT22;14792;50.886;6.468;2023-08-21T11:05:01;27.30;99.90
27306;DHT22;14792;50.886;6.468;2023-08-21T11:08:06;27.50;99.90
27306;DHT22;14792;50.886;6.468;2023-08-21T11:11:07;27.40;99.90
27306;DHT22;14792;50.886;6.468;2023-08-21T11:14:09;27.70;99.90
27306;DHT22;14792;50.886;6.468;2023-08-21T11:17:11;27.80;99.90
27306;DHT22;14792;50.886;6.468;2023-08-21T11:20:12;28.00;99.90
27306;DHT22;14792;50.886;6.468;2023-08-21T11:23:14;28.10;99.90
27306;DHT22;14792;50.886;6.468;2023-08-21T11:26:16;28.30;99.90
27306;DHT22;14792;50.886;6.468;2023-08-21T11:29:17;28.50;99.90
27306;DHT22;14792;50.886;6.468;2023-08-21T11:32:22;28.80;99.90
27306;DHT22;14792;50.886;6.468;2023-08-21T11:35:23;28.50;99.90
27306;DHT22;14792;50.886;6.468;2023-08-21T11:38:26;28.70;99.90
27306;DHT22;14792;50.886;6.468;2023-08-21T11:41:26;28.80;99.90
27306;DHT22;14792;50.886;6.468;2023-08-21T11:44:28;28.40;99.90
27306;DHT22;14792;50.886;6.468;2023-08-21T11:47:33;28.80;99.90
27306;DHT22;14792;50.886;6.468;2023-08-21T11:50:34;28.70;99.90
27306;DHT22;14792;50.886;6.468;2023-08-21T11:53:39;28.60;99.90
27306;DHT22;14792;50.886;6.468;2023-08-21T11:56:40;28.40;99.90
27306;DHT22;14792;50.886;6.468;2023-08-21T11:59:51;28.10;99.90
27306;DHT22;14792;50.886;6.468;2023-08-21T12:02:58;28.10;99.90
27306;DHT22;14792;50.886;6.468;2023-08-21T12:05:59;28.20;99.90
27306;DHT22;14792;50.886;6.468;2023-08-21T12:09:01;28.20;99.90
27306;DHT22;14792;50.886;6.468;2023-08-21T12:12:02;28.10;99.90
27306;DHT22;14792;50.886;6.468;2023-08-21T12:15:04;28.40;99.90
27306;DHT22;14792;50.886;6.468;2023-08-21T12:18:06;28.70;99.90
27306;DHT22;14792;50.886;6.468;2023-08-21T12:21:07;28.80;99.90
27306;DHT22;14792;50.886;6.468;2023-08-21T12:24:09;28.70;99.90
27306;DHT22;14792;50.886;6.468;2023-08-21T12:27:10;28.60;99.90
27306;DHT22;14792;50.886;6.468;2023-08-21T12:30:12;28.80;99.90
27306;DHT22;14792;50.886;6.468;2023-08-21T12:33:14;28.90;99.90
27306;DHT22;14792;50.886;6.468;2023-08-21T12:36:16;29.40;99.90
27306;DHT22;14792;50.886;6.468;2023-08-21T12:39:18;29.20;99.90
27306;DHT22;14792;50.886;6.468;2023-08-21T12:42:19;28.80;99.90
27306;DHT22;14792;50.886;6.468;2023-08-21T12:45:20;29.00;99.90
27306;DHT22;14792;50.886;6.468;2023-08-21T12:48:22;29.30;99.90
27306;DHT22;14792;50.886;6.468;2023-08-21T12:51:23;29.30;99.90
27306;DHT22;14792;50.886;6.468;2023-08-21T12:54:25;29.70;99.90
27306;DHT22;14792;50.886;6.468;2023-08-21T12:57:27;29.60;99.90
27306;DHT22;14792;50.886;6.468;2023-08-21T13:00:28;29.10;99.90
27306;DHT22;14792;50.886;6.468;2023-08-21T13:03:30;28.50;99.90
27306;DHT22;14792;50.886;6.468;2023-08-21T13:06:31;28.30;99.90
27306;DHT22;14792;50.886;6.468;2023-08-21T13:09:33;28.70;99.90
27306;DHT22;14792;50.886;6.468;2023-08-21T13:12:35;28.80;99.90
27306;DHT22;14792;50.886;6.468;2023-08-21T13:15:36;28.80;99.90
27306;DHT22;14792;50.886;6.468;2023-08-21T13:18:38;28.60;99.90
27306;DHT22;14792;50.886;6.468;2023-08-21T13:21:39;28.70;99.90
27306;DHT22;14792;50.886;6.468;2023-08-21T13:24:41;28.90;99.90
27306;DHT22;14792;50.886;6.468;2023-08-21T13:27:42;29.00;99.90
27306;DHT22;14792;50.886;6.468;2023-08-21T13:30:44;29.00;99.90
27306;DHT22;14792;50.886;6.468;2023-08-21T13:33:46;29.00;99.90
27306;DHT22;14792;50.886;6.468;2023-08-21T13:36:47;28.70;99.90
27306;DHT22;14792;50.886;6.468;2023-08-21T13:39:49;28.60;99.90
27306;DHT22;14792;50.886;6.468;2023-08-21T13:42:50;28.60;99.90
27306;DHT22;14792;50.886;6.468;2023-08-21T13:45:52;28.50;99.90
27306;DHT22;14792;50.886;6.468;2023-08-21T13:48:54;28.90;99.90
27306;DHT22;14792;50.886;6.468;2023-08-21T13:51:55;29.10;99.90
27306;DHT22;14792;50.886;6.468;2023-08-21T13:54:56;29.20;99.90
27306;DHT22;14792;50.886;6.468;2023-08-21T13:57:58;28.90;99.90
27306;DHT22;14792;50.886;6.468;2023-08-21T14:01:00;28.90;99.90
27306;DHT22;14792;50.886;6.468;2023-08-21T14:04:01;29.30;99.90
27306;DHT22;14792;50.886;6.468;2023-08-21T14:07:03;29.10;99.90
27306;DHT22;14792;50.886;6.468;2023-08-21T14:10:04;29.50;99.90
27306;DHT22;14792;50.886;6.468;2023-08-21T14:13:06;28.90;99.90
27306;DHT22;14792;50.886;6.468;2023-08-21T14:16:07;28.20;99.90
27306;DHT22;14792;50.886;6.468;2023-08-21T14:19:09;28.10;99.90
27306;DHT22;14792;50.886;6.468;2023-08-21T14:22:10;28.50;99.90
27306;DHT22;14792;50.886;6.468;2023-08-21T14:25:12;28.40;99.90
27306;DHT22;14792;50.886;6.468;2023-08-21T14:28:14;28.30;99.90
27306;DHT22;14792;50.886;6.468;2023-08-21T14:31:16;28.20;99.90
27306;DHT22;14792;50.886;6.468;2023-08-21T14:34:17;28.50;99.90
27306;DHT22;14792;50.886;6.468;2023-08-21T14:37:20;29.10;99.90
27306;DHT22;14792;50.886;6.468;2023-08-21T14:40:20;29.30;99.90
27306;DHT22;14792;50.886;6.468;2023-08-21T14:43:22;29.60;99.90
27306;DHT22;14792;50.886;6.468;2023-08-21T14:46:23;29.70;99.90
27306;DHT22;14792;50.886;6.468;2023-08-21T14:49:24;29.50;99.90
27306;DHT22;14792;50.886;6.468;2023-08-21T14:52:26;29.40;99.90
27306;DHT22;14792;50.886;6.468;2023-08-21T14:55:27;29.30;99.90
27306;DHT22;14792;50.886;6.468;2023-08-21T14:58:29;29.40;99.90
27306;DHT22;14792;50.886;6.468;2023-08-21T15:01:30;29.00;99.90
27306;DHT22;14792;50.886;6.468;2023-08-21T15:04:31;28.80;99.90
27306;DHT22;14792;50.886;6.468;2023-08-21T15:07:33;28.60;99.90
27306;DHT22;14792;50.886;6.468;2023-08-21T15:10:34;28.60;99.90
27306;DHT22;14792;50.886;6.468;2023-08-21T15:13:39;28.60;99.90
27306;DHT22;14792;50.886;6.468;2023-08-21T15:16:40;28.60;99.90
27306;DHT22;14792;50.886;6.468;2023-08-21T15:19:42;28.50;99.90
27306;DHT22;14792;50.886;6.468;2023-08-21T15:22:43;28.50;99.90
27306;DHT22;14792;50.886;6.468;2023-08-21T15:25:46;28.70;99.90
27306;DHT22;14792;50.886;6.468;2023-08-21T15:28:48;28.40;99.90
27306;DHT22;14792;50.886;6.468;2023-08-21T15:31:49;28.30;99.90
27306;DHT22;14792;50.886;6.468;2023-08-21T15:34:51;28.30;99.90
27306;DHT22;14792;50.886;6.468;2023-08-21T15:37:52;28.40;99.90
27306;DHT22;14792;50.886;6.468;2023-08-21T15:40:54;28.30;99.90
27306;DHT22;14792;50.886;6.468;2023-08-21T15:43:55;28.20;99.90
27306;DHT22;14792;50.886;6.468;2023-08-21T15:46:57;28.10;99.90
27306;DHT22;14792;50.886;6.468;2023-08-21T15:49:59;28.10;99.90
27306;DHT22;14792;50.886;6.468;2023-08-21T15:53:00;28.00;99.90
27306;DHT22;14792;50.886;6.468;2023-08-21T15:56:02;27.90;99.90
27306;DHT22;14792;50.886;6.468;2023-08-21T15:59:03;27.80;99.90
27306;DHT22;14792;50.886;6.468;2023-08-21T16:02:05;27.90;99.90
27306;DHT22;14792;50.886;6.468;2023-08-21T16:05:09;27.70;99.90
27306;DHT22;14792;50.886;6.468;2023-08-21T16:08:11;27.70;99.90
27306;DHT22;14792;50.886;6.468;2023-08-21T16:11:13;27.80;99.90
27306;DHT22;14792;50.886;6.468;2023-08-21T16:14:14;27.50;99.90
27306;DHT22;14792;50.886;6.468;2023-08-21T16:17:16;27.50;99.90
27306;DHT22;14792;50.886;6.468;2023-08-21T16:20:18;27.70;99.90
27306;DHT22;14792;50.886;6.468;2023-08-21T16:23:19;27.50;99.90
27306;DHT22;14792;50.886;6.468;2023-08-21T16:26:21;27.50;99.90
27306;DHT22;14792;50.886;6.468;2023-08-21T16:29:22;27.50;99.90
27306;DHT22;14792;50.886;6.468;2023-08-21T16:32:24;27.30;99.90
27306;DHT22;14792;50.886;6.468;2023-08-21T16:35:25;27.30;99.90
27306;DHT22;14792;50.886;6.468;2023-08-21T16:38:27;27.30;99.90
27306;DHT22;14792;50.886;6.468;2023-08-21T16:41:29;27.40;99.90
27306;DHT22;14792;50.886;6.468;2023-08-21T16:44:30;27.10;99.90
27306;DHT22;14792;50.886;6.468;2023-08-21T16:47:32;27.10;99.90
27306;DHT22;14792;50.886;6.468;2023-08-21T16:50:33;27.10;99.90
27306;DHT22;14792;50.886;6.468;2023-08-21T16:53:35;27.10;99.90
27306;DHT22;14792;50.886;6.468;2023-08-21T16:56:37;27.10;99.90
27306;DHT22;14792;50.886;6.468;2023-08-21T16:59:38;26.90;99.90
27306;DHT22;14792;50.886;6.468;2023-08-21T17:02:40;26.90;99.90
27306;DHT22;14792;50.886;6.468;2023-08-21T17:05:41;26.70;99.90
27306;DHT22;14792;50.886;6.468;2023-08-21T17:08:43;26.80;99.90
27306;DHT22;14792;50.886;6.468;2023-08-21T17:11:46;26.70;99.90
27306;DHT22;14792;50.886;6.468;2023-08-21T17:14:48;26.50;99.90
27306;DHT22;14792;50.886;6.468;2023-08-21T17:17:49;26.40;99.90
27306;DHT22;14792;50.886;6.468;2023-08-21T17:20:51;26.30;99.90
27306;DHT22;14792;50.886;6.468;2023-08-21T17:23:52;26.10;99.90
27306;DHT22;14792;50.886;6.468;2023-08-21T17:26:54;26.00;99.90
27306;DHT22;14792;50.886;6.468;2023-08-21T17:29:55;26.00;99.90
27306;DHT22;14792;50.886;6.468;2023-08-21T17:32:57;26.00;99.90
27306;DHT22;14792;50.886;6.468;2023-08-21T17:35:59;26.00;99.90
27306;DHT22;14792;50.886;6.468;2023-08-21T17:39:00;25.80;99.90
27306;DHT22;14792;50.886;6.468;2023-08-21T17:42:02;25.80;99.90
27306;DHT22;14792;50.886;6.468;2023-08-21T17:45:03;25.70;99.90
27306;DHT22;14792;50.886;6.468;2023-08-21T17:48:05;25.70;99.90
27306;DHT22;14792;50.886;6.468;2023-08-21T17:51:07;25.50;99.90
27306;DHT22;14792;50.886;6.468;2023-08-21T17:54:08;25.50;99.90
27306;DHT22;14792;50.886;6.468;2023-08-21T17:57:10;25.40;99.90
27306;DHT22;14792;50.886;6.468;2023-08-21T18:00:11;25.30;99.90
27306;DHT22;14792;50.886;6.468;2023-08-21T18:03:13;25.20;99.90
27306;DHT22;14792;50.886;6.468;2023-08-21T18:06:15;25.20;99.90
27306;DHT22;14792;50.886;6.468;2023-08-21T18:09:16;25.10;99.90
27306;DHT22;14792;50.886;6.468;2023-08-21T18:12:18;25.00;99.90
27306;DHT22;14792;50.886;6.468;2023-08-21T18:15:19;24.90;99.90
27306;DHT22;14792;50.886;6.468;2023-08-21T18:18:21;24.80;99.90
27306;DHT22;14792;50.886;6.468;2023-08-21T18:21:23;24.70;99.90
27306;DHT22;14792;50.886;6.468;2023-08-21T18:24:24;24.60;99.90
27306;DHT22;14792;50.886;6.468;2023-08-21T18:27:26;24.60;99.90
27306;DHT22;14792;50.886;6.468;2023-08-21T18:30:29;24.50;99.90
27306;DHT22;14792;50.886;6.468;2023-08-21T18:33:29;24.40;99.90
27306;DHT22;14792;50.886;6.468;2023-08-21T18:36:30;24.30;99.90
27306;DHT22;14792;50.886;6.468;2023-08-21T18:39:32;24.20;99.90
27306;DHT22;14792;50.886;6.468;2023-08-21T18:42:34;24.20;99.90
27306;DHT22;14792;50.886;6.468;2023-08-21T18:45:36;24.10;99.90
27306;DHT22;14792;50.886;6.468;2023-08-21T18:48:37;24.10;99.90
27306;DHT22;14792;50.886;6.468;2023-08-21T18:51:38;24.00;99.90
27306;DHT22;14792;50.886;6.468;2023-08-21T18:54:40;23.90;99.90
27306;DHT22;14792;50.886;6.468;2023-08-21T18:57:42;23.80;99.90
27306;DHT22;14792;50.886;6.468;2023-08-21T19:00:43;23.80;99.90
27306;DHT22;14792;50.886;6.468;2023-08-21T19:03:45;23.60;99.90
27306;DHT22;14792;50.886;6.468;2023-08-21T19:06:46;23.40;99.90